sensor_id;sensor_type;location;lat;lon;timestamp;P1;durP1;ratioP1;P2;durP2;ratioP2
51529;SDS011;37613;51.788;21.582;2023-05-14T15:38:18;4.80;;;1.50;;
51529;SDS011;37613;51.788;21.582;2023-05-14T15:42:23;4.30;;;1.50;;
51529;SDS011;37613;51.788;21.582;2023-05-14T15:46:28;3.00;;;1.90;;
51529;SDS011;37613;51.788;21.582;2023-05-14T15:50:39;5.30;;;1.90;;
51529;SDS011;37613;51.788;21.582;2023-05-14T15:54:41;4.30;;;2.00;;
51529;SDS011;37613;51.788;21.582;2023-05-14T15:58:47;6.40;;;3.70;;
51529;SDS011;37613;51.788;21.582;2023-05-14T16:02:59;2.20;;;2.00;;
51529;SDS011;37613;51.788;21.582;2023-05-14T16:07:04;35.20;;;23.60;;
51529;SDS011;37613;51.788;21.582;2023-05-14T16:11:10;37.60;;;26.70;;
51529;SDS011;37613;51.788;21.582;2023-05-14T16:15:17;4.90;;;3.70;;
51529;SDS011;37613;51.788;21.582;2023-05-14T16:23:24;3.90;;;2.30;;
51529;SDS011;37613;51.788;21.582;2023-05-14T16:27:33;6.30;;;4.50;;
51529;SDS011;37613;51.788;21.582;2023-05-14T16:31:36;5.00;;;3.10;;
51529;SDS011;37613;51.788;21.582;2023-05-14T16:35:38;5.70;;;2.60;;
51529;SDS011;37613;51.788;21.582;2023-05-14T16:39:41;3.80;;;1.60;;
51529;SDS011;37613;51.788;21.582;2023-05-14T16:43:46;5.40;;;2.60;;
51529;SDS011;37613;51.788;21.582;2023-05-14T16:47:52;5.90;;;2.50;;
51529;SDS011;37613;51.788;21.582;2023-05-14T16:51:54;3.80;;;2.10;;
51529;SDS011;37613;51.788;21.582;2023-05-14T16:55:59;9.00;;;2.90;;
51529;SDS011;37613;51.788;21.582;2023-05-14T17:00:02;5.70;;;4.10;;
51529;SDS011;37613;51.788;21.582;2023-05-14T17:04:10;9.80;;;6.60;;
51529;SDS011;37613;51.788;21.582;2023-05-14T17:12:15;8.00;;;5.40;;
51529;SDS011;37613;51.788;21.582;2023-05-14T17:16:17;9.50;;;6.90;;
51529;SDS011;37613;51.788;21.582;2023-05-14T17:20:18;7.50;;;5.90;;
51529;SDS011;37613;51.788;21.582;2023-05-14T17:24:20;12.90;;;6.90;;
51529;SDS011;37613;51.788;21.582;2023-05-14T17:28:22;12.50;;;8.10;;
51529;SDS011;37613;51.788;21.582;2023-05-14T17:36:29;7.00;;;5.20;;
51529;SDS011;37613;51.788;21.582;2023-05-14T17:40:33;6.90;;;3.30;;
51529;SDS011;37613;51.788;21.582;2023-05-14T17:44:35;10.10;;;5.30;;
51529;SDS011;37613;51.788;21.582;2023-05-14T17:48:37;13.70;;;6.20;;
51529;SDS011;37613;51.788;21.582;2023-05-14T17:52:39;12.70;;;8.00;;
51529;SDS011;37613;51.788;21.582;2023-05-14T17:56:44;29.50;;;14.60;;
51529;SDS011;37613;51.788;21.582;2023-05-14T18:00:48;25.30;;;15.70;;
51529;SDS011;37613;51.788;21.582;2023-05-14T18:04:53;16.30;;;8.60;;
51529;SDS011;37613;51.788;21.582;2023-05-14T18:09:10;13.60;;;7.70;;
51529;SDS011;37613;51.788;21.582;2023-05-14T18:13:16;19.10;;;8.80;;
51529;SDS011;37613;51.788;21.582;2023-05-14T18:17:21;16.90;;;9.40;;
51529;SDS011;37613;51.788;21.582;2023-05-14T18:21:24;25.40;;;12.20;;
51529;SDS011;37613;51.788;21.582;2023-05-14T18:25:27;35.10;;;18.90;;
51529;SDS011;37613;51.788;21.582;2023-05-14T18:29:29;31.40;;;15.10;;
51529;SDS011;37613;51.788;21.582;2023-05-14T18:33:33;21.80;;;11.50;;
51529;SDS011;37613;51.788;21.582;2023-05-14T18:41:38;23.80;;;13.00;;
51529;SDS011;37613;51.788;21.582;2023-05-14T18:45:41;33.40;;;16.90;;
51529;SDS011;37613;51.788;21.582;2023-05-14T18:49:47;22.60;;;12.30;;
51529;SDS011;37613;51.788;21.582;2023-05-14T18:53:50;21.00;;;12.30;;
51529;SDS011;37613;51.788;21.582;2023-05-14T18:57:52;16.80;;;9.40;;
51529;SDS011;37613;51.788;21.582;2023-05-14T19:01:54;16.70;;;7.70;;
51529;SDS011;37613;51.788;21.582;2023-05-14T19:05:59;39.70;;;13.30;;
51529;SDS011;37613;51.788;21.582;2023-05-14T19:10:04;48.10;;;16.50;;
51529;SDS011;37613;51.788;21.582;2023-05-14T19:14:11;31.60;;;14.90;;
51529;SDS011;37613;51.788;21.582;2023-05-14T19:18:17;24.80;;;11.30;;
51529;SDS011;37613;51.788;21.582;2023-05-14T19:22:22;26.00;;;13.30;;
51529;SDS011;37613;51.788;21.582;2023-05-14T19:26:24;44.10;;;19.70;;
51529;SDS011;37613;51.788;21.582;2023-05-14T19:30:26;32.70;;;12.90;;
51529;SDS011;37613;51.788;21.582;2023-05-14T19:34:28;55.60;;;26.20;;
51529;SDS011;37613;51.788;21.582;2023-05-14T19:38:32;61.00;;;27.00;;
51529;SDS011;37613;51.788;21.582;2023-05-14T19:42:37;38.30;;;16.10;;
51529;SDS011;37613;51.788;21.582;2023-05-14T19:46:44;40.60;;;19.70;;
51529;SDS011;37613;51.788;21.582;2023-05-14T19:50:49;25.50;;;11.80;;
51529;SDS011;37613;51.788;21.582;2023-05-14T19:54:53;97.20;;;65.60;;
51529;SDS011;37613;51.788;21.582;2023-05-14T19:58:55;31.50;;;19.60;;
51529;SDS011;37613;51.788;21.582;2023-05-14T20:03:32;34.90;;;16.20;;
51529;SDS011;37613;51.788;21.582;2023-05-14T20:07:44;29.90;;;15.40;;
51529;SDS011;37613;51.788;21.582;2023-05-14T20:11:47;28.50;;;14.90;;
51529;SDS011;37613;51.788;21.582;2023-05-14T20:15:58;26.30;;;13.40;;
51529;SDS011;37613;51.788;21.582;2023-05-14T20:20:02;30.20;;;14.80;;
51529;SDS011;37613;51.788;21.582;2023-05-14T20:24:07;31.80;;;14.80;;
51529;SDS011;37613;51.788;21.582;2023-05-14T20:28:15;19.80;;;12.10;;
51529;SDS011;37613;51.788;21.582;2023-05-14T20:32:17;26.80;;;12.20;;
51529;SDS011;37613;51.788;21.582;2023-05-14T20:36:25;23.90;;;10.30;;
51529;SDS011;37613;51.788;21.582;2023-05-14T20:40:29;28.20;;;12.80;;
51529;SDS011;37613;51.788;21.582;2023-05-14T20:44:34;21.70;;;10.50;;
51529;SDS011;37613;51.788;21.582;2023-05-14T20:48:42;17.30;;;9.70;;
51529;SDS011;37613;51.788;21.582;2023-05-14T20:52:54;19.60;;;12.30;;
51529;SDS011;37613;51.788;21.582;2023-05-14T20:56:56;17.40;;;9.90;;
51529;SDS011;37613;51.788;21.582;2023-05-14T21:01:02;18.40;;;10.40;;
51529;SDS011;37613;51.788;21.582;2023-05-14T21:05:11;19.20;;;11.90;;
51529;SDS011;37613;51.788;21.582;2023-05-14T21:09:20;15.70;;;10.80;;
51529;SDS011;37613;51.788;21.582;2023-05-14T21:13:23;19.00;;;10.80;;
51529;SDS011;37613;51.788;21.582;2023-05-14T21:17:25;13.90;;;6.80;;
51529;SDS011;37613;51.788;21.582;2023-05-14T21:21:28;8.80;;;6.40;;
51529;SDS011;37613;51.788;21.582;2023-05-14T21:25:40;9.70;;;6.30;;
51529;SDS011;37613;51.788;21.582;2023-05-14T21:29:42;11.80;;;6.70;;
51529;SDS011;37613;51.788;21.582;2023-05-14T21:33:47;10.00;;;5.70;;
51529;SDS011;37613;51.788;21.582;2023-05-14T21:37:49;8.80;;;5.80;;
51529;SDS011;37613;51.788;21.582;2023-05-14T21:41:51;8.20;;;4.70;;
51529;SDS011;37613;51.788;21.582;2023-05-14T21:45:54;8.50;;;5.90;;
51529;SDS011;37613;51.788;21.582;2023-05-14T21:49:56;7.40;;;5.10;;
51529;SDS011;37613;51.788;21.582;2023-05-14T21:53:58;8.80;;;5.10;;
51529;SDS011;37613;51.788;21.582;2023-05-14T22:02:03;5.50;;;3.40;;
51529;SDS011;37613;51.788;21.582;2023-05-14T22:06:08;5.70;;;3.40;;
51529;SDS011;37613;51.788;21.582;2023-05-14T22:10:11;6.90;;;2.80;;
51529;SDS011;37613;51.788;21.582;2023-05-14T22:14:18;5.80;;;3.20;;
51529;SDS011;37613;51.788;21.582;2023-05-14T22:18:23;4.10;;;2.70;;
51529;SDS011;37613;51.788;21.582;2023-05-14T22:22:29;7.50;;;3.50;;
51529;SDS011;37613;51.788;21.582;2023-05-14T22:26:34;3.50;;;2.60;;
51529;SDS011;37613;51.788;21.582;2023-05-14T22:30:41;7.10;;;2.90;;
51529;SDS011;37613;51.788;21.582;2023-05-14T22:34:46;8.00;;;2.60;;
51529;SDS011;37613;51.788;21.582;2023-05-14T22:38:50;8.90;;;3.50;;
51529;SDS011;37613;51.788;21.582;2023-05-14T22:42:52;5.60;;;3.00;;
51529;SDS011;37613;51.788;21.582;2023-05-14T22:46:54;9.40;;;2.90;;
51529;SDS011;37613;51.788;21.582;2023-05-14T22:50:57;7.50;;;2.80;;
51529;SDS011;37613;51.788;21.582;2023-05-14T22:55:06;4.40;;;2.90;;
51529;SDS011;37613;51.788;21.582;2023-05-14T22:59:12;4.00;;;2.40;;
51529;SDS011;37613;51.788;21.582;2023-05-14T23:03:14;2.90;;;2.20;;
51529;SDS011;37613;51.788;21.582;2023-05-14T23:07:22;4.60;;;2.90;;
51529;SDS011;37613;51.788;21.582;2023-05-14T23:11:25;3.30;;;2.60;;
51529;SDS011;37613;51.788;21.582;2023-05-14T23:15:27;5.10;;;2.30;;
51529;SDS011;37613;51.788;21.582;2023-05-14T23:19:30;6.90;;;3.00;;
51529;SDS011;37613;51.788;21.582;2023-05-14T23:23:37;4.20;;;2.30;;
51529;SDS011;37613;51.788;21.582;2023-05-14T23:27:42;4.60;;;2.50;;
51529;SDS011;37613;51.788;21.582;2023-05-14T23:31:44;5.80;;;2.20;;
51529;SDS011;37613;51.788;21.582;2023-05-14T23:35:52;2.70;;;2.00;;
51529;SDS011;37613;51.788;21.582;2023-05-14T23:39:54;5.60;;;2.40;;
51529;SDS011;37613;51.788;21.582;2023-05-14T23:43:59;6.90;;;2.70;;
51529;SDS011;37613;51.788;21.582;2023-05-14T23:48:04;3.00;;;2.40;;
51529;SDS011;37613;51.788;21.582;2023-05-14T23:52:09;8.10;;;3.60;;
51529;SDS011;37613;51.788;21.582;2023-05-14T23:56:11;5.50;;;2.70;;
